Moon — SFC6412 — position and weather

sailwx.info

Track history (hours):
 
Tides and Currents Weather Stations Pressure Air Temp Water Temp Dewpoint Dewpoint Depression Visibility Wind Speed Wind Dir Waves Ship Positions

Moon

Last reported at 2018-Apr-10 17:17 UTC. Time now 2018-Apr-21 17:12 UTC.
Position N 27°02' W 080°06'.
Warning: this ship's position is 10 days out of date.

Length 12 m.

Type: Sailing vessel. MMSI: 265525820.

Date/timePositionNaut miles runAvg speedWind from/ knotsBaromVisibWave heightAir tempDewpointWater temp
2018-Apr-10 17:17N 27°02' W 080°06'2 6.3
2018-Apr-10 17:00N 27°00' W 080°06'3 6.0
2018-Apr-10 16:29N 26°57' W 080°05'1 2.5
2018-Apr-10 15:59N 26°56' W 080°05'1 2.0
2018-Apr-10 15:30N 26°55' W 080°05'2 4.5
2018-Apr-10 15:00N 26°53' W 080°04'30 0.6
2018-Apr-08 15:51N 26°23' W 080°04'2 4.9
2018-Apr-08 15:24N 26°21' W 080°05'4 4.9
2018-Apr-08 14:40N 26°17' W 080°05'1 5.9
2018-Apr-08 14:30N 26°16' W 080°05'2 4.4
2018-Apr-08 13:59N 26°14' W 080°06'3 5.1
2018-Apr-08 13:30N 26°11' W 080°06'3 5.4
2018-Apr-08 13:00N 26°09' W 080°06'0 0.0
2018-Apr-07 18:48N 26°09' W 080°07'1 2.0
2018-Apr-07 18:30N 26°08' W 080°07'2 4.1
2018-Apr-07 17:59N 26°06' W 080°07'3 6.0
2018-Apr-07 17:31N 26°03' W 080°07'3 5.0
2018-Apr-07 17:00N 26°01' W 080°07'2 3.4
2018-Apr-07 16:30N 25°59' W 080°07'2 3.6
2018-Apr-07 16:01N 25°57' W 080°08'3 5.6
2018-Apr-07 15:30N 25°54' W 080°08'2 4.5
2018-Apr-07 15:00N 25°52' W 080°09'1 1.9
2018-Apr-07 14:27N 25°51' W 080°10'0 0.7
2018-Apr-07 14:00N 25°51' W 080°10'0 0.0
2018-Apr-07 13:30N 25°51' W 080°09'0 0.0
2018-Apr-07 12:57N 25°51' W 080°09'  
Track history (hours):
 
Tides and Currents Weather Stations Pressure Air Temp Water Temp Dewpoint Dewpoint Depression Visibility Wind Speed Wind Dir Waves Ship Positions

Moon

Last reported at 2018-Apr-10 17:17 UTC. Time now 2018-Apr-21 17:12 UTC.
Position N 27°02' W 080°06'.
Warning: this ship's position is 10 days out of date.

Length 12 m.

Type: Sailing vessel. MMSI: 265525820.

Date/timePositionNaut miles runAvg speedWind from/ knotsBaromVisibWave heightAir tempDewpointWater temp
2018-Apr-10 17:17N 27°02' W 080°06'2 6.3
2018-Apr-10 17:00N 27°00' W 080°06'3 6.0
2018-Apr-10 16:29N 26°57' W 080°05'1 2.5
2018-Apr-10 15:59N 26°56' W 080°05'1 2.0
2018-Apr-10 15:30N 26°55' W 080°05'2 4.5
2018-Apr-10 15:00N 26°53' W 080°04'30 0.6
2018-Apr-08 15:51N 26°23' W 080°04'2 4.9
2018-Apr-08 15:24N 26°21' W 080°05'4 4.9
2018-Apr-08 14:40N 26°17' W 080°05'1 5.9
2018-Apr-08 14:30N 26°16' W 080°05'2 4.4
2018-Apr-08 13:59N 26°14' W 080°06'3 5.1
2018-Apr-08 13:30N 26°11' W 080°06'3 5.4
2018-Apr-08 13:00N 26°09' W 080°06'0 0.0
2018-Apr-07 18:48N 26°09' W 080°07'1 2.0
2018-Apr-07 18:30N 26°08' W 080°07'2 4.1
2018-Apr-07 17:59N 26°06' W 080°07'3 6.0
2018-Apr-07 17:31N 26°03' W 080°07'3 5.0
2018-Apr-07 17:00N 26°01' W 080°07'2 3.4
2018-Apr-07 16:30N 25°59' W 080°07'2 3.6
2018-Apr-07 16:01N 25°57' W 080°08'3 5.6
2018-Apr-07 15:30N 25°54' W 080°08'2 4.5
2018-Apr-07 15:00N 25°52' W 080°09'1 1.9
2018-Apr-07 14:27N 25°51' W 080°10'0 0.7
2018-Apr-07 14:00N 25°51' W 080°10'0 0.0
2018-Apr-07 13:30N 25°51' W 080°09'0 0.0
2018-Apr-07 12:57N 25°51' W 080°09'  

Dump ship's entire track history